createdAt,value
2018-09-01T00:00:35.582Z,28.84
2018-09-01T00:01:14.312Z,28.86
2018-09-01T00:01:53.268Z,28.87
2018-09-01T00:02:32.241Z,28.89
2018-09-01T00:03:10.950Z,28.85
2018-09-01T00:03:49.665Z,28.88
2018-09-01T00:04:30.209Z,28.86
2018-09-01T00:05:08.790Z,28.85
2018-09-01T00:05:47.408Z,28.85
2018-09-01T00:06:27.575Z,28.87
2018-09-01T00:07:06.185Z,28.88
2018-09-01T00:07:45.814Z,28.88
2018-09-01T00:08:25.485Z,28.90
2018-09-01T00:09:04.098Z,28.90
2018-09-01T00:09:45.451Z,28.92
2018-09-01T00:10:24.629Z,28.90
2018-09-01T00:11:05.008Z,28.92
2018-09-01T00:11:43.741Z,28.94
2018-09-01T00:12:22.561Z,28.93
2018-09-01T00:13:01.173Z,28.96
2018-09-01T00:13:39.834Z,28.98
2018-09-01T00:14:18.554Z,28.99
2018-09-01T00:14:57.646Z,28.99
2018-09-01T00:15:36.570Z,29.00
2018-09-01T00:16:15.259Z,28.94
2018-09-01T00:16:53.900Z,28.95
2018-09-01T00:17:33.624Z,28.95
2018-09-01T00:18:14.265Z,28.96
2018-09-01T00:18:52.987Z,28.93
2018-09-01T00:19:31.839Z,28.96
2018-09-01T00:20:10.698Z,28.96
2018-09-01T00:20:50.138Z,28.91
2018-09-01T00:21:28.956Z,28.93
2018-09-01T00:22:07.562Z,28.94
2018-09-01T00:22:46.081Z,28.92
2018-09-01T00:23:25.235Z,28.93
2018-09-01T00:24:07.652Z,28.94
2018-09-01T00:24:46.170Z,28.90
2018-09-01T00:25:24.712Z,28.90
2018-09-01T00:26:03.287Z,28.88
2018-09-01T00:26:43.252Z,28.91
2018-09-01T00:27:21.825Z,28.92
2018-09-01T00:28:00.668Z,28.93
2018-09-01T00:28:39.195Z,28.95
2018-09-01T00:29:17.724Z,28.96
2018-09-01T00:29:56.029Z,28.96
2018-09-01T00:30:34.568Z,28.98
2018-09-01T00:31:13.076Z,28.98
2018-09-01T00:31:51.591Z,29.01
2018-09-01T00:32:30.024Z,29.03
2018-09-01T00:33:08.738Z,29.06
2018-09-01T00:33:47.219Z,29.07
2018-09-01T00:34:25.633Z,29.08
2018-09-01T00:35:03.965Z,29.10
2018-09-01T00:35:42.508Z,29.12
2018-09-01T00:36:20.812Z,29.12
2018-09-01T00:36:58.840Z,29.13
2018-09-01T00:37:41.061Z,29.15
2018-09-01T00:38:23.132Z,29.17
2018-09-01T00:39:04.267Z,29.17
2018-09-01T00:39:46.074Z,29.17
2018-09-01T00:40:28.041Z,29.16
2018-09-01T00:41:05.960Z,29.19
2018-09-01T00:41:43.898Z,29.21
2018-09-01T00:42:21.790Z,29.19
2018-09-01T00:43:02.625Z,29.23
2018-09-01T00:43:40.717Z,29.21
2018-09-01T00:44:18.643Z,29.23
2018-09-01T00:44:56.721Z,29.25
2018-09-01T00:45:34.702Z,29.25
2018-09-01T00:46:12.697Z,29.23
2018-09-01T00:46:50.656Z,29.27
2018-09-01T00:47:28.682Z,29.26
2018-09-01T00:48:06.800Z,29.28
2018-09-01T00:48:44.789Z,29.29
2018-09-01T00:49:22.676Z,29.31
2018-09-01T00:50:01.018Z,29.32
2018-09-01T00:50:38.976Z,29.33
2018-09-01T00:51:18.038Z,29.35
2018-09-01T00:51:56.089Z,29.37
2018-09-01T00:52:34.018Z,29.37
2018-09-01T00:53:12.107Z,29.37
2018-09-01T00:53:50.484Z,29.40
2018-09-01T00:54:34.355Z,29.45
2018-09-01T00:55:15.750Z,29.46
2018-09-01T00:55:53.650Z,29.49
2018-09-01T00:56:31.704Z,29.54
2018-09-01T00:57:09.731Z,29.58
2018-09-01T00:57:47.780Z,29.62
2018-09-01T00:58:25.821Z,29.66
2018-09-01T00:59:03.858Z,29.66
2018-09-01T00:59:41.864Z,29.70
2018-09-01T01:00:19.807Z,29.73
2018-09-01T01:00:57.809Z,29.72
2018-09-01T01:01:35.886Z,29.75
2018-09-01T01:02:13.984Z,29.77
2018-09-01T01:02:52.816Z,29.79
2018-09-01T01:03:30.853Z,29.79
2018-09-01T01:04:08.900Z,29.82
2018-09-01T01:04:46.851Z,29.83
2018-09-01T01:05:25.001Z,29.86
2018-09-01T01:06:03.111Z,29.89
2018-09-01T01:06:41.120Z,29.90
2018-09-01T01:07:19.308Z,29.96
2018-09-01T01:07:57.309Z,29.99
2018-09-01T01:08:35.323Z,30.08
2018-09-01T01:09:13.318Z,30.27
2018-09-01T01:09:51.283Z,30.33
2018-09-01T01:10:29.281Z,30.33
2018-09-01T01:11:07.525Z,30.34
2018-09-01T01:11:45.621Z,30.32
2018-09-01T01:12:23.694Z,30.38
2018-09-01T01:13:01.633Z,30.37
2018-09-01T01:13:39.686Z,30.36
2018-09-01T01:14:17.632Z,30.33
2018-09-01T01:14:55.540Z,30.37
2018-09-01T01:15:33.582Z,30.38
2018-09-01T01:16:11.567Z,30.38
2018-09-01T01:16:49.541Z,30.37
2018-09-01T01:17:27.449Z,30.38
2018-09-01T01:18:05.508Z,30.34
2018-09-01T01:18:43.464Z,30.37
2018-09-01T01:19:22.171Z,30.39
2018-09-01T01:20:00.183Z,30.39
2018-09-01T01:20:38.125Z,30.38
2018-09-01T01:21:16.129Z,30.37
2018-09-01T01:21:54.504Z,30.39
2018-09-01T01:22:32.481Z,30.44
2018-09-01T01:23:10.545Z,30.55
2018-09-01T01:23:48.522Z,30.65
2018-09-01T01:24:26.471Z,30.83
2018-09-01T01:25:04.568Z,31.02
2018-09-01T01:25:42.731Z,31.19
2018-09-01T01:26:20.793Z,31.28
2018-09-01T01:26:58.960Z,31.44
2018-09-01T01:27:37.000Z,31.58
2018-09-01T01:28:15.052Z,31.67
2018-09-01T01:28:53.137Z,31.78
2018-09-01T01:29:31.416Z,31.90
2018-09-01T01:30:09.580Z,32.02
2018-09-01T01:30:47.593Z,32.14
2018-09-01T01:31:25.512Z,32.23
2018-09-01T01:32:03.575Z,32.31
2018-09-01T01:32:41.454Z,32.43
2018-09-01T01:33:19.465Z,32.49
2018-09-01T01:33:57.732Z,32.57
2018-09-01T01:34:35.792Z,32.67
2018-09-01T01:35:13.769Z,32.73
2018-09-01T01:35:51.668Z,32.78
2018-09-01T01:36:29.728Z,32.87
2018-09-01T01:37:07.686Z,32.92
2018-09-01T01:37:45.826Z,32.95
2018-09-01T01:38:23.934Z,32.99
2018-09-01T01:39:01.899Z,33.05
2018-09-01T01:39:39.948Z,33.14
2018-09-01T01:40:19.060Z,33.22
2018-09-01T01:40:57.108Z,33.23
2018-09-01T01:41:35.123Z,33.28
2018-09-01T01:42:13.434Z,33.35
2018-09-01T01:42:51.758Z,33.41
2018-09-01T01:43:29.778Z,33.46
2018-09-01T01:44:07.828Z,33.52
2018-09-01T01:44:45.790Z,33.56
2018-09-01T01:45:23.889Z,33.57
2018-09-01T01:46:01.874Z,33.63
2018-09-01T01:46:39.836Z,33.60
2018-09-01T01:47:18.816Z,33.69
2018-09-01T01:47:56.838Z,33.74
2018-09-01T01:48:35.873Z,33.75
2018-09-01T01:49:13.946Z,33.80
2018-09-01T01:49:52.020Z,33.82
2018-09-01T01:50:29.943Z,33.84
2018-09-01T01:51:07.900Z,33.93
2018-09-01T01:51:46.031Z,33.99
2018-09-01T01:52:23.994Z,34.06
2018-09-01T01:53:01.946Z,34.13
2018-09-01T01:53:39.829Z,34.11
2018-09-01T01:54:17.860Z,34.22
2018-09-01T01:54:55.899Z,34.23
2018-09-01T01:55:33.989Z,34.31
2018-09-01T01:56:11.958Z,34.31
2018-09-01T01:56:49.962Z,34.35
2018-09-01T01:57:27.899Z,34.25
2018-09-01T01:58:05.828Z,34.34
2018-09-01T01:58:43.798Z,34.38
2018-09-01T01:59:21.903Z,34.43
2018-09-01T01:59:59.830Z,34.49
2018-09-01T02:00:37.864Z,34.52
2018-09-01T02:01:15.833Z,34.57
2018-09-01T02:01:53.834Z,34.62
2018-09-01T02:02:31.959Z,34.65
2018-09-01T02:03:10.155Z,34.73
2018-09-01T02:03:48.336Z,34.77
2018-09-01T02:04:26.444Z,34.85
2018-09-01T02:05:05.489Z,34.88
2018-09-01T02:05:43.468Z,34.94
2018-09-01T02:06:21.489Z,34.96
2018-09-01T02:06:59.501Z,34.97
2018-09-01T02:07:37.518Z,34.97
2018-09-01T02:08:15.507Z,35.05
2018-09-01T02:08:53.536Z,35.05
2018-09-01T02:09:31.620Z,35.13
2018-09-01T02:10:09.583Z,35.15
2018-09-01T02:10:47.808Z,35.21
2018-09-01T02:11:25.722Z,35.23
2018-09-01T02:12:03.760Z,35.27
2018-09-01T02:12:41.979Z,35.24
2018-09-01T02:13:20.103Z,35.25
2018-09-01T02:13:58.212Z,35.27
2018-09-01T02:14:36.215Z,35.27
2018-09-01T02:15:14.228Z,35.33
2018-09-01T02:15:52.168Z,35.36
2018-09-01T02:16:30.153Z,35.33
2018-09-01T02:17:08.660Z,35.36
2018-09-01T02:17:46.637Z,35.41
2018-09-01T02:18:24.725Z,35.47
2018-09-01T02:19:02.761Z,35.54
2018-09-01T02:19:40.725Z,35.59
2018-09-01T02:20:19.367Z,35.71
2018-09-01T02:20:57.412Z,35.75
2018-09-01T02:21:35.655Z,35.81
2018-09-01T02:22:13.782Z,35.80
2018-09-01T02:22:51.863Z,35.80
2018-09-01T02:23:29.899Z,35.83
2018-09-01T02:24:09.128Z,35.86
2018-09-01T02:24:47.198Z,35.92
2018-09-01T02:25:25.360Z,35.97
2018-09-01T02:26:03.306Z,36.01
2018-09-01T02:26:41.734Z,36.07
2018-09-01T02:27:19.788Z,36.06
2018-09-01T02:27:57.753Z,36.06
2018-09-01T02:28:35.923Z,36.07
2018-09-01T02:29:13.986Z,36.09
2018-09-01T02:29:51.945Z,36.09
2018-09-01T02:30:29.801Z,36.11
2018-09-01T02:31:08.081Z,36.13
2018-09-01T02:31:46.004Z,36.16
2018-09-01T02:32:23.952Z,36.12
2018-09-01T02:33:01.931Z,35.97
2018-09-01T02:33:39.889Z,35.97
2018-09-01T02:34:17.888Z,36.01
2018-09-01T02:34:56.077Z,35.88
2018-09-01T02:35:34.157Z,35.90
2018-09-01T02:36:13.328Z,35.96
2018-09-01T02:36:51.458Z,35.98
2018-09-01T02:37:29.410Z,36.01
2018-09-01T02:38:07.541Z,36.04
2018-09-01T02:38:45.742Z,36.03
2018-09-01T02:39:23.751Z,36.10
2018-09-01T02:40:01.638Z,36.17
2018-09-01T02:40:39.805Z,36.18
2018-09-01T02:41:17.821Z,36.27
2018-09-01T02:41:55.811Z,36.28
2018-09-01T02:42:33.797Z,36.36
2018-09-01T02:43:11.805Z,36.34
2018-09-01T02:43:50.391Z,36.40
2018-09-01T02:44:28.357Z,36.44
2018-09-01T02:45:06.357Z,36.44
2018-09-01T02:45:44.354Z,36.48
2018-09-01T02:46:22.356Z,36.53
2018-09-01T02:47:00.422Z,36.55
2018-09-01T02:47:38.446Z,36.55
2018-09-01T03:02:33.274Z,37.14
2018-09-01T03:03:11.441Z,37.11
2018-09-01T03:03:49.433Z,37.11
2018-09-01T03:04:27.571Z,37.18
2018-09-01T03:05:05.645Z,37.18
2018-09-01T03:05:43.543Z,37.18
2018-09-01T03:06:21.665Z,37.23
2018-09-01T03:07:01.675Z,37.27
2018-09-01T03:07:39.597Z,37.29
2018-09-01T03:08:17.681Z,37.37
2018-09-01T03:08:55.632Z,37.31
2018-09-01T03:09:33.609Z,37.40
2018-09-01T03:10:11.589Z,37.49
2018-09-01T03:10:49.605Z,37.49
2018-09-01T03:11:27.788Z,37.47
2018-09-01T03:12:05.691Z,37.40
2018-09-01T03:12:43.676Z,37.31
2018-09-01T03:13:21.816Z,37.16
2018-09-01T03:13:59.664Z,37.13
2018-09-01T03:14:37.552Z,37.16
2018-09-01T03:15:15.436Z,37.16
2018-09-01T03:15:53.470Z,37.20
2018-09-01T03:16:31.477Z,37.17
2018-09-01T03:17:10.357Z,37.20
2018-09-01T03:17:48.346Z,37.22
2018-09-01T03:18:26.393Z,37.22
2018-09-01T03:19:04.528Z,37.23
2018-09-01T03:19:42.475Z,37.20
2018-09-01T03:20:20.536Z,37.21
2018-09-01T03:20:58.501Z,37.19
2018-09-01T03:21:36.768Z,37.13
2018-09-01T03:22:14.780Z,37.17
2018-09-01T03:22:52.833Z,37.18
2018-09-01T03:23:30.902Z,37.17
2018-09-01T03:24:08.983Z,37.26
2018-09-01T03:24:46.907Z,37.34
2018-09-01T03:25:25.044Z,37.36
2018-09-01T03:26:03.236Z,37.39
2018-09-01T03:26:41.266Z,37.45
2018-09-01T03:27:19.236Z,37.43
2018-09-01T03:27:57.135Z,37.32
2018-09-01T03:28:35.062Z,37.22
2018-09-01T03:29:13.376Z,37.08
2018-09-01T03:29:51.517Z,36.93
2018-09-01T03:30:29.627Z,36.80
2018-09-01T03:31:07.653Z,36.67
2018-09-01T03:31:45.669Z,36.61
2018-09-01T03:32:23.791Z,36.52
2018-09-01T03:33:01.740Z,36.51
2018-09-01T03:33:41.525Z,36.54
2018-09-01T03:34:19.611Z,36.51
2018-09-01T03:34:57.630Z,36.48
2018-09-01T03:35:35.644Z,36.44
2018-09-01T03:36:13.684Z,36.41
2018-09-01T03:36:51.802Z,36.42
2018-09-01T03:37:29.759Z,36.43
2018-09-01T03:38:08.008Z,36.45
2018-09-01T03:38:46.064Z,36.45
2018-09-01T03:39:25.008Z,36.47
2018-09-01T03:40:03.074Z,36.44
2018-09-01T03:40:41.101Z,36.39
2018-09-01T03:41:19.256Z,36.32
2018-09-01T03:41:57.338Z,36.36
2018-09-01T03:42:35.663Z,36.30
2018-09-01T03:43:13.969Z,36.25
2018-09-01T03:43:52.218Z,36.20
2018-09-01T03:44:30.560Z,36.18
2018-09-01T03:45:09.160Z,36.15
2018-09-01T03:45:47.495Z,36.12
2018-09-01T03:46:26.950Z,36.16
2018-09-01T03:47:05.656Z,36.12
2018-09-01T03:47:43.906Z,36.13
2018-09-01T03:48:22.034Z,36.13
2018-09-01T03:49:01.918Z,36.15
2018-09-01T03:49:40.325Z,36.22
2018-09-01T03:50:18.404Z,36.27
2018-09-01T03:50:56.426Z,36.37
2018-09-01T03:51:34.363Z,36.50
2018-09-01T03:52:12.267Z,36.70
2018-09-01T03:52:51.092Z,36.85
2018-09-01T03:53:29.167Z,37.02
2018-09-01T03:54:08.360Z,37.11
2018-09-01T03:54:46.321Z,37.19
2018-09-01T03:55:24.276Z,37.20
2018-09-01T03:56:02.573Z,37.24
2018-09-01T03:56:40.687Z,37.24
2018-09-01T03:57:18.685Z,37.24
2018-09-01T03:57:56.774Z,37.27
2018-09-01T03:58:34.920Z,37.27
2018-09-01T03:59:12.997Z,37.28
2018-09-01T03:59:51.110Z,37.35
2018-09-01T04:00:29.580Z,37.43
2018-09-01T04:01:07.607Z,37.40
2018-09-01T04:01:45.683Z,37.45
2018-09-01T04:02:23.759Z,37.52
2018-09-01T04:03:01.965Z,37.53
2018-09-01T04:03:39.909Z,37.68
2018-09-01T04:04:18.106Z,37.78
2018-09-01T04:04:56.530Z,37.77
2018-09-01T04:05:34.584Z,37.76
2018-09-01T04:06:16.886Z,37.69
2018-09-01T04:06:54.850Z,37.82
2018-09-01T04:07:32.772Z,37.93
2018-09-01T04:08:10.894Z,38.04
2018-09-01T04:08:49.112Z,38.09
2018-09-01T04:09:26.994Z,38.15
2018-09-01T04:10:05.069Z,38.19
2018-09-01T04:10:42.976Z,38.20
2018-09-01T04:11:20.924Z,38.22
2018-09-01T04:11:58.833Z,38.26
2018-09-01T04:12:36.957Z,38.31
2018-09-01T04:13:14.954Z,38.33
2018-09-01T04:13:52.967Z,38.38
2018-09-01T04:14:31.014Z,38.43
2018-09-01T04:15:09.552Z,38.47
2018-09-01T04:15:47.535Z,38.53
2018-09-01T04:16:25.608Z,38.55
2018-09-01T04:17:03.571Z,38.57
2018-09-01T04:17:41.638Z,38.61
2018-09-01T04:18:19.825Z,38.64
2018-09-01T04:18:58.043Z,38.66
2018-09-01T04:19:36.067Z,38.69
2018-09-01T04:20:14.129Z,38.74
2018-09-01T04:20:52.035Z,38.67
2018-09-01T04:21:29.939Z,38.69
2018-09-01T04:22:07.815Z,38.72
2018-09-01T04:22:45.786Z,38.72
2018-09-01T04:23:23.941Z,38.76
2018-09-01T04:24:01.871Z,38.80
2018-09-01T04:24:40.591Z,38.78
2018-09-01T04:25:18.556Z,38.82
2018-09-01T04:25:56.646Z,38.87
2018-09-01T04:26:34.646Z,38.89
2018-09-01T04:27:12.720Z,38.94
2018-09-01T04:27:50.631Z,38.97
2018-09-01T04:28:28.705Z,39.00
2018-09-01T04:29:06.675Z,39.00
2018-09-01T04:29:44.713Z,39.01
2018-09-01T04:30:22.756Z,38.97
2018-09-01T04:31:00.788Z,38.99
2018-09-01T04:31:39.526Z,38.98
2018-09-01T04:32:17.513Z,38.93
2018-09-01T04:32:55.561Z,38.95
2018-09-01T04:33:33.618Z,38.99
2018-09-01T04:34:11.636Z,39.02
2018-09-01T04:34:49.667Z,39.04
2018-09-01T04:35:27.652Z,38.99
2018-09-01T04:36:05.672Z,38.91
2018-09-01T04:36:43.616Z,38.88
2018-09-01T04:37:21.672Z,38.89
2018-09-01T04:37:59.647Z,38.87
2018-09-01T04:38:37.591Z,38.91
2018-09-01T04:39:16.156Z,38.96
2018-09-01T04:39:55.500Z,38.98
2018-09-01T04:40:33.520Z,38.97
2018-09-01T04:41:11.482Z,38.89
2018-09-01T04:41:49.501Z,38.92
2018-09-01T04:42:27.414Z,38.95
2018-09-01T04:43:05.407Z,38.97
2018-09-01T04:43:43.383Z,39.01
2018-09-01T04:44:21.439Z,39.01
2018-09-01T04:44:59.364Z,39.01
2018-09-01T04:45:37.453Z,38.99
2018-09-01T04:46:15.520Z,39.02
2018-09-01T04:46:53.668Z,38.98
2018-09-01T04:47:32.289Z,38.87
2018-09-01T04:48:10.301Z,38.85
2018-09-01T04:48:48.317Z,38.76
2018-09-01T04:49:26.609Z,38.75
2018-09-01T04:50:04.846Z,38.67
2018-09-01T04:50:43.156Z,38.63
2018-09-01T04:51:21.188Z,38.63
2018-09-01T04:51:59.268Z,38.68
2018-09-01T04:52:37.168Z,38.68
2018-09-01T04:53:15.393Z,38.69
2018-09-01T04:53:53.372Z,38.68
2018-09-01T04:54:31.377Z,38.58
2018-09-01T04:55:09.427Z,38.60
2018-09-01T04:55:47.435Z,38.64
2018-09-01T04:56:25.777Z,38.60
2018-09-01T04:57:03.778Z,38.60
2018-09-01T04:57:41.955Z,38.64
2018-09-01T04:58:19.974Z,38.67
2018-09-01T04:58:58.083Z,38.71
2018-09-01T04:59:36.072Z,38.76
2018-09-01T05:01:13.161Z,38.83
2018-09-01T05:01:51.332Z,38.84
2018-09-01T05:02:29.451Z,38.85
2018-09-01T05:03:07.470Z,38.82
2018-09-01T05:03:45.484Z,38.83
2018-09-01T05:04:23.567Z,38.81
2018-09-01T05:05:01.671Z,38.78
2018-09-01T05:05:39.752Z,38.79
2018-09-01T05:06:17.805Z,38.82
2018-09-01T05:06:55.891Z,38.83
2018-09-01T05:07:33.859Z,38.85
2018-09-01T05:08:11.782Z,38.81
2018-09-01T05:08:49.979Z,38.79
2018-09-01T05:09:27.912Z,38.79
2018-09-01T05:10:06.164Z,38.81
2018-09-01T05:10:44.199Z,38.81
2018-09-01T05:11:22.185Z,38.83
2018-09-01T05:12:00.135Z,38.85
2018-09-01T05:12:38.155Z,38.88
2018-09-01T05:13:16.307Z,38.90
2018-09-01T05:13:54.322Z,38.89
2018-09-01T05:14:32.473Z,38.91
2018-09-01T05:15:10.538Z,38.88
2018-09-01T05:15:48.772Z,38.88
2018-09-01T05:16:26.881Z,38.88
2018-09-01T05:17:05.766Z,38.82
2018-09-01T05:17:43.789Z,38.77
2018-09-01T05:18:21.772Z,38.77
2018-09-01T05:19:00.170Z,38.78
2018-09-01T05:19:38.199Z,38.78
2018-09-01T05:20:16.903Z,38.77
2018-09-01T05:20:54.948Z,38.74
2018-09-01T05:21:32.926Z,38.74
2018-09-01T05:22:11.022Z,38.72
2018-09-01T05:22:48.959Z,38.70
2018-09-01T05:23:27.065Z,38.68
2018-09-01T05:24:05.130Z,38.60
2018-09-01T05:24:43.327Z,38.65
2018-09-01T05:25:21.437Z,38.60
2018-09-01T05:25:59.455Z,38.64
2018-09-01T05:26:37.502Z,38.65
2018-09-01T05:27:15.449Z,38.71
2018-09-01T05:27:53.684Z,38.74
2018-09-01T05:28:31.766Z,38.75
2018-09-01T05:29:09.764Z,38.78
2018-09-01T05:29:47.821Z,38.79
2018-09-01T05:30:25.773Z,38.81
2018-09-01T05:31:03.765Z,38.86
2018-09-01T05:31:41.761Z,38.90
2018-09-01T05:32:22.123Z,38.90
2018-09-01T05:33:00.492Z,38.89
2018-09-01T05:33:39.560Z,38.91
2018-09-01T05:34:17.640Z,38.90
2018-09-01T05:34:55.640Z,38.88
2018-09-01T05:35:33.676Z,38.86
2018-09-01T05:36:11.675Z,38.84
2018-09-01T05:36:49.852Z,38.80
2018-09-01T05:37:27.915Z,38.79
2018-09-01T05:38:06.087Z,38.77
2018-09-01T05:38:44.257Z,38.73
2018-09-01T05:39:22.295Z,38.68
2018-09-01T05:40:00.289Z,38.67
2018-09-01T05:40:38.211Z,38.64
2018-09-01T05:41:16.361Z,38.60
2018-09-01T05:41:54.309Z,38.57
2018-09-01T05:42:32.320Z,38.57
2018-09-01T05:43:10.327Z,38.49
2018-09-01T05:43:48.522Z,38.48
2018-09-01T05:44:26.672Z,38.44
2018-09-01T05:45:05.536Z,38.42
2018-09-01T05:45:43.518Z,38.40
2018-09-01T05:46:21.460Z,38.35
2018-09-01T05:46:59.599Z,38.32
2018-09-01T05:47:37.714Z,38.33
2018-09-01T05:48:15.797Z,38.26
2018-09-01T05:48:53.832Z,38.26
2018-09-01T05:49:31.963Z,38.25
2018-09-01T05:50:09.990Z,38.23
2018-09-01T05:50:48.098Z,38.25
2018-09-01T05:51:26.096Z,38.27
2018-09-01T05:52:04.202Z,38.28
2018-09-01T05:52:42.397Z,38.30
2018-09-01T05:53:20.474Z,38.38
2018-09-01T05:53:58.519Z,38.44
2018-09-01T05:54:36.391Z,38.48
2018-09-01T05:55:14.407Z,38.52
2018-09-01T05:55:52.368Z,38.55
2018-09-01T05:56:30.356Z,38.63
2018-09-01T05:57:08.521Z,38.67
2018-09-01T05:57:46.544Z,38.72
2018-09-01T05:58:24.584Z,38.76
2018-09-01T05:59:02.801Z,38.76
2018-09-01T05:59:40.798Z,38.75
2018-09-01T06:00:24.594Z,38.67
2018-09-01T06:01:02.992Z,38.67
2018-09-01T06:01:41.094Z,38.68
2018-09-01T06:02:19.202Z,38.70
2018-09-01T06:02:57.455Z,38.67
2018-09-01T06:03:35.632Z,38.61
2018-09-01T06:04:13.688Z,38.64
2018-09-01T06:04:54.451Z,38.65
2018-09-01T06:05:34.984Z,38.72
2018-09-01T06:06:13.365Z,38.70
2018-09-01T06:06:52.662Z,38.68
2018-09-01T06:07:32.572Z,38.58
2018-09-01T06:08:11.773Z,38.59
2018-09-01T06:08:49.880Z,38.61
2018-09-01T06:09:27.835Z,38.61
2018-09-01T06:10:05.827Z,38.58
2018-09-01T06:10:43.739Z,38.60
2018-09-01T06:11:21.986Z,38.57
2018-09-01T06:12:00.029Z,38.59
2018-09-01T06:12:38.198Z,38.58
2018-09-01T06:13:16.209Z,38.57
2018-09-01T06:13:54.306Z,38.46
2018-09-01T06:14:32.240Z,38.38
2018-09-01T06:15:10.552Z,38.37
2018-09-01T06:15:48.615Z,38.37
2018-09-01T06:16:27.573Z,38.36
2018-09-01T06:17:05.660Z,38.34
2018-09-01T06:17:43.719Z,38.35
2018-09-01T06:18:21.932Z,38.32
2018-09-01T06:19:00.041Z,38.37
2018-09-01T06:19:38.070Z,38.40
2018-09-01T06:20:17.240Z,38.45
2018-09-01T06:20:55.153Z,38.45
2018-09-01T06:21:33.123Z,38.43
2018-09-01T06:22:11.185Z,38.42
2018-09-01T06:22:49.083Z,38.37
2018-09-01T06:23:29.754Z,38.36
2018-09-01T06:24:07.918Z,38.34
2018-09-01T06:24:46.948Z,38.34
2018-09-01T06:25:24.852Z,38.34
2018-09-01T06:26:02.820Z,38.38
2018-09-01T06:26:40.761Z,38.37
2018-09-01T06:27:27.731Z,38.40
2018-09-01T06:28:12.310Z,38.38
2018-09-01T06:28:56.428Z,38.37
2018-09-01T06:29:34.541Z,38.39
2018-09-01T06:30:19.781Z,38.39
2018-09-01T06:30:58.584Z,38.44
2018-09-01T06:31:36.980Z,38.45
2018-09-01T06:32:15.293Z,38.42
2018-09-01T06:32:53.543Z,38.40
2018-09-01T06:33:31.875Z,38.37
2018-09-01T06:34:09.972Z,38.39
2018-09-01T06:34:47.998Z,38.32
2018-09-01T06:35:26.136Z,38.27
2018-09-01T06:36:04.301Z,38.27
2018-09-01T06:36:42.348Z,38.30
2018-09-01T06:37:20.395Z,38.35
2018-09-01T06:37:58.767Z,38.40
2018-09-01T06:38:36.724Z,38.41
2018-09-01T06:39:14.601Z,38.39
2018-09-01T06:39:52.600Z,38.38
2018-09-01T06:40:30.645Z,38.39
2018-09-01T06:41:09.076Z,38.40
2018-09-01T06:41:47.058Z,38.36
2018-09-01T06:42:26.143Z,38.42
2018-09-01T06:43:04.048Z,38.44
2018-09-01T06:43:42.066Z,38.46
2018-09-01T06:44:20.208Z,38.47
2018-09-01T06:44:58.294Z,38.47
2018-09-01T06:45:36.290Z,38.51
2018-09-01T06:46:14.269Z,38.53
2018-09-01T06:46:52.592Z,38.55
2018-09-01T06:47:30.767Z,38.52
2018-09-01T06:48:09.007Z,38.57
2018-09-01T06:48:47.046Z,38.57
2018-09-01T06:49:25.844Z,38.60
2018-09-01T06:50:03.829Z,38.68
2018-09-01T06:50:41.820Z,38.71
2018-09-01T06:51:19.987Z,38.71
2018-09-01T06:51:57.989Z,38.66
2018-09-01T06:52:36.072Z,38.69
2018-09-01T06:53:14.051Z,38.70
2018-09-01T06:53:52.014Z,38.69
2018-09-01T06:54:29.954Z,38.71
2018-09-01T06:55:09.199Z,38.68
2018-09-01T06:55:47.306Z,38.66
2018-09-01T06:56:25.271Z,38.64
2018-09-01T06:57:03.217Z,38.58
2018-09-01T06:57:41.244Z,38.53
2018-09-01T06:58:19.200Z,38.51
2018-09-01T06:58:57.321Z,38.53
2018-09-01T06:59:35.495Z,38.46
2018-09-01T07:00:13.797Z,38.47
2018-09-01T07:00:51.705Z,38.48
2018-09-01T07:01:29.712Z,38.52
2018-09-01T07:02:07.798Z,38.57
2018-09-01T07:02:45.787Z,38.60
2018-09-01T07:03:23.827Z,38.60
2018-09-01T07:04:01.852Z,38.60
2018-09-01T07:04:39.790Z,38.65
2018-09-01T07:05:17.818Z,38.66
2018-09-01T07:05:55.916Z,38.65
2018-09-01T07:06:33.926Z,38.64
2018-09-01T07:07:11.936Z,38.60
2018-09-01T07:07:50.091Z,38.51
2018-09-01T07:08:28.103Z,38.48
2018-09-01T07:09:07.375Z,38.43
2018-09-01T07:09:45.356Z,38.37
2018-09-01T07:10:23.725Z,38.41
2018-09-01T07:11:01.708Z,38.39
2018-09-01T07:11:39.941Z,38.42
2018-09-01T07:12:17.908Z,38.37
2018-09-01T07:12:56.281Z,38.43
2018-09-01T07:13:34.255Z,38.45
2018-09-01T07:14:12.410Z,38.47
2018-09-01T07:14:50.376Z,38.48
2018-09-01T07:15:29.489Z,38.45
2018-09-01T07:16:07.781Z,38.44
2018-09-01T07:16:45.721Z,38.45
2018-09-01T07:17:23.840Z,38.44
2018-09-01T07:18:01.897Z,38.45
2018-09-01T07:18:39.939Z,38.43
2018-09-01T07:19:17.909Z,38.37
2018-09-01T07:19:55.815Z,38.32
2018-09-01T07:20:33.909Z,38.30
2018-09-01T07:21:11.837Z,38.25
2018-09-01T07:21:49.857Z,38.21
2018-09-01T07:22:27.896Z,38.24
2018-09-01T07:23:05.864Z,38.22
2018-09-01T07:23:43.787Z,38.17
2018-09-01T07:24:23.043Z,38.18
2018-09-01T07:25:01.026Z,38.19
2018-09-01T07:25:39.070Z,38.22
2018-09-01T07:26:16.964Z,38.20
2018-09-01T07:26:54.900Z,38.26
2018-09-01T07:27:32.866Z,38.32
2018-09-01T07:28:11.096Z,38.36
2018-09-01T07:28:49.145Z,38.38
2018-09-01T07:29:27.147Z,38.38
2018-09-01T07:30:05.191Z,38.43
2018-09-01T07:30:43.428Z,38.41
2018-09-01T07:31:21.800Z,38.25
2018-09-01T07:31:59.803Z,38.24
2018-09-01T07:32:37.804Z,38.24
2018-09-01T07:33:15.857Z,38.21
2018-09-01T07:33:53.946Z,38.10
2018-09-01T07:34:31.952Z,38.10
2018-09-01T07:35:10.286Z,38.04
2018-09-01T07:35:48.329Z,38.00
2018-09-01T07:36:26.265Z,38.06
2018-09-01T07:37:04.430Z,38.02
2018-09-01T07:37:42.430Z,38.08
2018-09-01T07:38:20.565Z,38.11
2018-09-01T07:38:58.724Z,38.14
2018-09-01T07:39:36.688Z,38.14
2018-09-01T07:40:14.733Z,38.14
2018-09-01T07:40:52.815Z,38.17
2018-09-01T07:41:30.819Z,38.12
2018-09-01T07:42:08.977Z,38.16
2018-09-01T07:42:46.970Z,38.12
2018-09-01T07:43:24.927Z,37.95
2018-09-01T07:44:03.063Z,37.96
2018-09-01T07:44:41.035Z,38.00
2018-09-01T07:45:19.125Z,38.00
2018-09-01T07:45:57.108Z,38.06
2018-09-01T07:46:35.154Z,38.11
2018-09-01T07:47:13.319Z,38.14
2018-09-01T07:47:51.436Z,38.20
2018-09-01T07:48:29.372Z,38.19
2018-09-01T07:49:07.379Z,38.22
2018-09-01T07:49:45.399Z,38.21
2018-09-01T07:50:24.267Z,38.13
2018-09-01T07:51:02.275Z,38.05
2018-09-01T07:51:40.321Z,38.06
2018-09-01T07:52:18.266Z,38.08
2018-09-01T07:52:56.246Z,38.09
2018-09-01T07:53:34.630Z,38.08
2018-09-01T07:54:12.683Z,38.03
2018-09-01T07:54:50.724Z,38.02
2018-09-01T07:55:28.772Z,38.01
2018-09-01T07:56:07.001Z,37.93
2018-09-01T07:56:44.984Z,37.90
2018-09-01T07:57:23.157Z,37.84
2018-09-01T07:58:01.220Z,37.76
2018-09-01T07:58:39.328Z,37.76
2018-09-01T07:59:17.242Z,37.73
2018-09-01T07:59:55.265Z,37.75
2018-09-01T08:00:33.339Z,37.79
2018-09-01T08:01:11.241Z,37.84
2018-09-01T08:01:49.228Z,37.86
2018-09-01T08:02:27.367Z,37.84
2018-09-01T08:03:05.303Z,37.85
2018-09-01T08:03:44.385Z,37.85
2018-09-01T08:04:22.435Z,37.87
2018-09-01T08:05:00.484Z,37.83
2018-09-01T08:05:38.459Z,37.78
2018-09-01T08:06:16.648Z,37.74
2018-09-01T08:06:54.734Z,37.71
2018-09-01T08:07:32.746Z,37.73
2018-09-01T08:08:10.880Z,37.69
2018-09-01T08:08:49.037Z,37.65
2018-09-01T08:09:27.048Z,37.62
2018-09-01T08:10:05.140Z,37.53
2018-09-01T08:10:43.238Z,37.43
2018-09-01T08:11:21.144Z,37.29
2018-09-01T08:11:59.193Z,37.13
2018-09-01T08:12:37.139Z,37.06
2018-09-01T08:13:15.104Z,36.97
2018-09-01T08:13:53.172Z,36.94
2018-09-01T08:14:31.338Z,36.88
2018-09-01T08:15:09.997Z,36.80
2018-09-01T08:15:47.947Z,36.77
2018-09-01T08:16:25.985Z,36.78
2018-09-01T08:17:04.262Z,36.84
2018-09-01T08:17:42.273Z,36.91
2018-09-01T08:18:20.273Z,36.98
2018-09-01T08:18:58.236Z,37.05
2018-09-01T08:19:36.414Z,37.13
2018-09-01T08:20:14.697Z,37.18
2018-09-01T08:20:52.669Z,37.24
2018-09-01T08:21:30.684Z,37.31
2018-09-01T08:22:08.909Z,37.28
2018-09-01T08:22:46.973Z,37.28
2018-09-01T08:23:25.012Z,37.33
2018-09-01T08:24:03.075Z,37.29
2018-09-01T08:24:41.139Z,37.36
2018-09-01T08:25:19.288Z,37.38
2018-09-01T08:25:57.390Z,37.39
2018-09-01T08:26:35.592Z,37.40
2018-09-01T08:27:13.752Z,37.36
2018-09-01T08:27:51.878Z,37.37
2018-09-01T08:28:29.945Z,37.36